罗盘
风向 的 Haelogo Airport 12/30
风: 3 kt, 1 beaufort

2 kt

3 kt
改变
0 1.000 2.000 3.000 4.000 5.000
FEW 5.000 ft
METAR AYPY 022300Z VRB03KT 9999 HZ FEW050 28/23 Q1008

METAR Haelogo Airport

Haelogo Airport是Haelogo,巴布亚新几内亚中的小机场。 该机场有一条跑道: 12/30.

这份报告是针对2022年7月3日 9:00 上午, 当地时间在傑克遜斯國際機場进行的。

机场观察

可变方向的风很小或没有风。

可见度为6¼ mi 或者更多。

有几云在5.000 ft的高度。 没有观察到天花板。

当前天气为阴霾。 温度和风寒是82 °F。 热指数为31。 露点为73 °F,相对湿度为74%。 海平面上的气压为29,77 inHg (QNH)。

白天

今天,太阳从6:25 上午升起,在6:01 下午降落。 这适用于Haelogo Airport,世界夏令时可能有所不同。 当地时间与世界标准时间之间的时差为+10 小时。 夏令时目前正在进行中。

公司介绍

我们没有关于这个机场的公司信息。

体会

到Vliegles.nl去找飞行课程,跳伞和其他飞行体验。 浏览页面,了解Haelogo Airport附近所有可用的活动。 你也可以使用搜索功能来寻找你所在地附近的特定飞行课程、跳伞或其他飞行体验。

您会帮助我们保持Metar-Taf.com正常运行吗?
您的贡献有助于网站的进一步开发并支付费用。

没有更多广告

您是捐款5美元还是更多?然后,我们将永远不会再向您展示广告,这是我们永恒的感谢!
捐赠前先登录

跑道

Id 标题 侧风 逆风 侧风 %
12/30 120°-300° 3 kt 2 kt 87 %

逆风成分最大的方向会被突出显示,并用于横风计算。 这并不一定意味着这个方向在使用。

乌云

5.000 ft FEW 几云

温度 & 天气

天气 阴霾
温度 82 °F
露点 73 °F
相对湿度 74%
热度指数 88 °F
Kp-index 2  

公司介绍

新增公司

下载我们的应用程序

在您的手机和平板电脑上轻松访问所有航空天气。
有许多网站上没有的功能,如离线支持和个人机场列表。

Studio Eveline

Benalmádena
España

我们和第三方通过cookies跟踪您在我们网站上的上网行为。如果您继续,我们认为您同意我们的cookie政策。 了解更多